Time;durP1;ratioP1;P1;durP2;ratioP2;P2;SDS_P1;SDS_P2;PMS_P1;PMS_P2;Temp;Humidity;BMP_temperature;BMP_pressure;BME280_temperature;BME280_humidity;BME280_pressure;Samples;Min_cycle;Max_cycle;Signal;HPM_P1;HPM_P2
2024/03/23 00:03:34;;;;;;;;;;;9.60;99.90;;;;;;6717273;88;20117;-77
2024/03/23 00:13:35;;;;;;;;;;;9.50;99.90;;;;;;6716862;88;20055;-77
2024/03/23 00:23:36;;;;;;;;;;;8.90;99.90;;;;;;6719576;88;20076;-77
2024/03/23 00:33:37;;;;;;;;;;;8.60;99.90;;;;;;6718881;88;20179;-77
2024/03/23 00:43:39;;;;;;;;;;;8.40;99.90;;;;;;6720223;88;20113;-77
2024/03/23 00:53:39;;;;;;;;;;;8.40;99.90;;;;;;6728370;88;20042;-77
2024/03/23 01:03:39;;;;;;;;;;;8.40;99.90;;;;;;6726006;77;20073;-76
2024/03/23 01:13:40;;;;;;;;;;;8.40;99.90;;;;;;6663643;88;20077;-76
2024/03/23 01:23:40;;;;;;;;;;;8.20;99.90;;;;;;6681686;88;20131;-76
2024/03/23 01:33:41;;;;;;;;;;;8.20;99.90;;;;;;6688699;88;20169;-76
2024/03/23 01:43:41;;;;;;;;;;;8.10;99.90;;;;;;6669015;88;20057;-76
2024/03/23 01:53:42;;;;;;;;;;;7.90;99.90;;;;;;6671047;88;20181;-77
2024/03/23 02:03:42;;;;;;;;;;;7.90;99.90;;;;;;6666053;88;20074;-77
2024/03/23 02:13:43;;;;;;;;;;;7.90;99.90;;;;;;6656444;88;20055;-77
2024/03/23 02:23:43;;;;;;;;;;;7.70;99.90;;;;;;6661402;88;20837;-77
2024/03/23 02:33:44;;;;;;;;;;;7.40;99.90;;;;;;6660008;88;20256;-77
2024/03/23 02:43:44;;;;;;;;;;;7.30;99.90;;;;;;6650886;88;20178;-77
2024/03/23 02:53:44;;;;;;;;;;;7.20;99.90;;;;;;6657160;88;20062;-77
2024/03/23 03:03:45;;;;;;;;;;;7.00;99.90;;;;;;6665789;88;20226;-77
2024/03/23 03:13:45;;;;;;;;;;;6.80;99.90;;;;;;6672242;88;20073;-78
2024/03/23 03:23:46;;;;;;;;;;;6.50;99.90;;;;;;6673147;88;20072;-76
2024/03/23 03:33:46;;;;;;;;;;;5.80;99.90;;;;;;6652617;88;20128;-77
2024/03/23 03:43:47;;;;;;;;;;;5.80;99.90;;;;;;6679664;88;20055;-77
2024/03/23 03:53:47;;;;;;;;;;;5.80;99.90;;;;;;6666120;88;20086;-77
2024/03/23 04:03:48;;;;;;;;;;;5.70;99.90;;;;;;6673450;88;20567;-78
2024/03/23 04:13:48;;;;;;;;;;;5.70;99.90;;;;;;6672229;88;20084;-77
2024/03/23 04:23:48;;;;;;;;;;;5.60;99.90;;;;;;6676210;88;20092;-78
2024/03/23 04:33:49;;;;;;;;;;;5.60;99.90;;;;;;6668772;88;20512;-78
2024/03/23 04:43:49;;;;;;;;;;;5.70;99.90;;;;;;6665460;88;20414;-76
2024/03/23 04:53:50;;;;;;;;;;;5.60;99.90;;;;;;6673500;88;20140;-77
2024/03/23 05:03:50;;;;;;;;;;;5.50;99.90;;;;;;6662774;88;20087;-77
2024/03/23 05:13:51;;;;;;;;;;;5.40;99.90;;;;;;6663262;88;20050;-78
2024/03/23 05:23:51;;;;;;;;;;;5.30;99.90;;;;;;6691480;88;20089;-79
2024/03/23 05:33:52;;;;;;;;;;;5.40;99.90;;;;;;6681301;88;20077;-78
2024/03/23 05:43:52;;;;;;;;;;;5.40;99.90;;;;;;6678325;88;20135;-79
2024/03/23 05:53:53;;;;;;;;;;;5.40;99.90;;;;;;6670618;88;20062;-78
2024/03/23 06:03:53;;;;;;;;;;;5.40;99.90;;;;;;6671268;88;20088;-78
2024/03/23 06:13:53;;;;;;;;;;;5.40;99.90;;;;;;6673122;88;20073;-78
2024/03/23 06:23:54;;;;;;;;;;;5.40;99.90;;;;;;6678635;88;20074;-78
2024/03/23 06:33:55;;;;;;;;;;;5.60;99.90;;;;;;6681329;88;20543;-78
2024/03/23 06:43:55;;;;;;;;;;;5.70;99.90;;;;;;6655770;88;20066;-77
2024/03/23 06:53:56;;;;;;;;;;;5.70;99.90;;;;;;6666652;88;20084;-76
2024/03/23 07:03:56;;;;;;;;;;;5.70;99.90;;;;;;6668148;77;20092;-77
2024/03/23 07:13:57;;;;;;;;;;;6.10;99.90;;;;;;6655830;89;20110;-77
2024/03/23 07:23:57;;;;;;;;;;;6.40;99.90;;;;;;6649879;88;20055;-77
2024/03/23 07:33:57;;;;;;;;;;;6.80;99.90;;;;;;6662758;88;20502;-76
2024/03/23 07:43:58;;;;;;;;;;;7.20;99.90;;;;;;6644496;88;20061;-77
2024/03/23 07:53:58;;;;;;;;;;;7.60;99.90;;;;;;6656137;88;20080;-78
2024/03/23 08:03:59;;;;;;;;;;;8.30;99.90;;;;;;6638214;88;20088;-77
2024/03/23 08:14:01;;;;;;;;;;;8.90;99.90;;;;;;6646881;88;20474;-77
2024/03/23 08:24:01;;;;;;;;;;;9.70;99.90;;;;;;6656985;88;20051;-77
2024/03/23 08:34:02;;;;;;;;;;;6.20;99.90;;;;;;6650296;89;20484;-77
2024/03/23 08:44:02;;;;;;;;;;;6.40;99.90;;;;;;6665253;88;20057;-76
2024/03/23 08:54:03;;;;;;;;;;;7.40;99.90;;;;;;6666002;88;20563;-76
2024/03/23 09:04:04;;;;;;;;;;;9.10;99.90;;;;;;6644570;88;20074;-77
2024/03/23 09:14:04;;;;;;;;;;;9.20;99.90;;;;;;6654786;88;21386;-77
2024/03/23 09:24:05;;;;;;;;;;;10.00;99.90;;;;;;6664629;88;20197;-77
2024/03/23 09:34:05;;;;;;;;;;;9.80;99.90;;;;;;6648364;88;20201;-77
2024/03/23 09:44:06;;;;;;;;;;;9.60;99.90;;;;;;6642909;88;20117;-76
2024/03/23 09:54:07;;;;;;;;;;;9.40;99.90;;;;;;6659106;88;20869;-76
2024/03/23 10:04:07;;;;;;;;;;;10.70;99.90;;;;;;6642543;88;20073;-76
2024/03/23 10:14:08;;;;;;;;;;;11.00;99.90;;;;;;6636359;88;20083;-76
2024/03/23 10:24:09;;;;;;;;;;;11.00;99.90;;;;;;6635401;88;20080;-77
2024/03/23 10:34:12;;;;;;;;;;;11.50;99.90;;;;;;6634008;88;20075;-77
2024/03/23 10:44:13;;;;;;;;;;;10.80;99.90;;;;;;6635730;88;20604;-76
2024/03/23 10:54:13;;;;;;;;;;;8.10;99.90;;;;;;6630666;88;20070;-76
2024/03/23 11:04:28;;;;;;;;;;;7.00;99.90;;;;;;6644278;88;20066;-76
2024/03/23 11:14:32;;;;;;;;;;;6.90;99.90;;;;;;6645550;88;20059;-75
2024/03/23 11:24:32;;;;;;;;;;;8.20;99.90;;;;;;6635329;88;20486;-76
2024/03/23 11:34:36;;;;;;;;;;;10.40;99.90;;;;;;6647183;88;20076;-77
2024/03/23 11:44:36;;;;;;;;;;;11.20;99.90;;;;;;6634323;88;20217;-77
2024/03/23 11:54:37;;;;;;;;;;;9.70;99.90;;;;;;6637544;88;20544;-77
2024/03/23 12:04:38;;;;;;;;;;;11.70;99.90;;;;;;6656290;88;20158;-76
2024/03/23 12:14:38;;;;;;;;;;;10.40;99.90;;;;;;6643591;88;20520;-76
2024/03/23 12:24:44;;;;;;;;;;;10.20;99.90;;;;;;6640756;88;20518;-77
2024/03/23 12:34:47;;;;;;;;;;;12.30;99.90;;;;;;6632773;88;20125;-77
2024/03/23 12:44:47;;;;;;;;;;;11.80;99.90;;;;;;6653005;88;20544;-78
2024/03/23 12:54:48;;;;;;;;;;;12.50;99.90;;;;;;6649701;88;20058;-77
2024/03/23 13:04:52;;;;;;;;;;;13.10;99.90;;;;;;6647131;77;20123;-78
2024/03/23 13:14:52;;;;;;;;;;;10.10;99.90;;;;;;6635120;88;20082;-76
2024/03/23 13:24:53;;;;;;;;;;;10.00;99.90;;;;;;6630855;88;20051;-77
2024/03/23 13:34:54;;;;;;;;;;;11.10;99.90;;;;;;6630511;88;20596;-77
2024/03/23 13:44:54;;;;;;;;;;;12.60;99.90;;;;;;6638120;88;20239;-76
2024/03/23 13:54:56;;;;;;;;;;;13.90;99.90;;;;;;6639362;88;20081;-76
2024/03/23 14:04:57;;;;;;;;;;;13.80;99.90;;;;;;6630084;88;20120;-76
2024/03/23 14:14:57;;;;;;;;;;;13.80;99.60;;;;;;6639485;88;20605;-76
2024/03/23 14:24:58;;;;;;;;;;;12.20;99.90;;;;;;6630308;88;20063;-77
2024/03/23 14:34:58;;;;;;;;;;;11.30;99.90;;;;;;6637592;88;20071;-76
2024/03/23 14:44:59;;;;;;;;;;;10.10;99.90;;;;;;6634900;88;20141;-76
2024/03/23 14:55:00;;;;;;;;;;;9.00;99.90;;;;;;6633507;88;22110;-77
2024/03/23 15:05:00;;;;;;;;;;;6.60;99.90;;;;;;6644897;88;20503;-76
2024/03/23 15:15:01;;;;;;;;;;;6.70;99.90;;;;;;6642743;88;20074;-76
2024/03/23 15:25:01;;;;;;;;;;;7.10;99.90;;;;;;6636828;88;20512;-76
2024/03/23 15:35:05;;;;;;;;;;;7.10;99.90;;;;;;6636044;88;20084;-76
2024/03/23 15:45:07;;;;;;;;;;;7.20;99.90;;;;;;6643040;88;20537;-76
2024/03/23 15:55:10;;;;;;;;;;;7.30;99.90;;;;;;6639369;88;20058;-77
2024/03/23 16:05:11;;;;;;;;;;;7.40;99.90;;;;;;6636871;88;20099;-76
2024/03/23 16:15:11;;;;;;;;;;;7.50;99.90;;;;;;6642833;88;20105;-76
2024/03/23 16:25:12;;;;;;;;;;;8.20;99.90;;;;;;6646852;88;20075;-77
2024/03/23 16:35:13;;;;;;;;;;;7.30;99.90;;;;;;6639641;88;20524;-77
2024/03/23 16:45:13;;;;;;;;;;;7.00;99.90;;;;;;6633281;88;20067;-77
2024/03/23 16:55:14;;;;;;;;;;;5.90;99.90;;;;;;6659175;88;20130;-77
2024/03/23 17:05:14;;;;;;;;;;;4.80;99.90;;;;;;6646256;88;20634;-77
2024/03/23 17:15:16;;;;;;;;;;;4.80;99.90;;;;;;6643714;88;20126;-76
2024/03/23 17:25:16;;;;;;;;;;;5.10;99.90;;;;;;6638060;88;20138;-77
2024/03/23 17:35:19;;;;;;;;;;;5.30;99.90;;;;;;6648227;88;20555;-76
2024/03/23 17:45:20;;;;;;;;;;;5.20;99.90;;;;;;6649651;88;20071;-77
2024/03/23 17:55:21;;;;;;;;;;;5.00;99.90;;;;;;6645141;88;20091;-77
2024/03/23 18:05:21;;;;;;;;;;;4.70;99.90;;;;;;6642609;88;20087;-76
2024/03/23 18:15:22;;;;;;;;;;;4.50;99.90;;;;;;6650158;88;20054;-76
2024/03/23 18:25:22;;;;;;;;;;;4.40;99.90;;;;;;6639601;88;20055;-77
2024/03/23 18:35:23;;;;;;;;;;;4.30;99.90;;;;;;6647617;88;20062;-76
2024/03/23 18:45:23;;;;;;;;;;;4.20;99.90;;;;;;6640676;88;20063;-77
2024/03/23 18:55:24;;;;;;;;;;;4.20;99.90;;;;;;6649259;88;20055;-76
2024/03/23 19:15:28;;;;;;;;;;;4.10;99.90;;;;;;6729874;88;20086;-77
2024/03/23 19:25:28;;;;;;;;;;;4.00;99.90;;;;;;6728745;88;20120;-77
2024/03/23 19:35:28;;;;;;;;;;;3.90;99.90;;;;;;6725633;88;20055;-77
2024/03/23 19:45:30;;;;;;;;;;;4.10;99.90;;;;;;6727044;88;20510;-77
2024/03/23 19:55:32;;;;;;;;;;;4.00;99.90;;;;;;6730525;88;20112;-77
2024/03/23 20:05:32;;;;;;;;;;;4.10;99.90;;;;;;6730992;88;20079;-76
2024/03/23 20:15:33;;;;;;;;;;;4.10;99.90;;;;;;6737759;88;20534;-76
2024/03/23 20:25:33;;;;;;;;;;;4.30;99.90;;;;;;6733598;88;20132;-77
2024/03/23 20:35:34;;;;;;;;;;;4.50;99.90;;;;;;6733669;88;20067;-77
2024/03/23 20:45:38;;;;;;;;;;;4.50;99.90;;;;;;6729620;88;20072;-78
2024/03/23 20:55:38;;;;;;;;;;;4.60;99.90;;;;;;6734059;88;20078;-78
2024/03/23 21:05:39;;;;;;;;;;;4.50;99.90;;;;;;6737819;88;20084;-77
2024/03/23 21:15:45;;;;;;;;;;;4.50;99.90;;;;;;6739268;88;20522;-76
2024/03/23 21:25:53;;;;;;;;;;;4.40;99.90;;;;;;6740337;88;20043;-76
2024/03/23 21:35:54;;;;;;;;;;;4.30;99.90;;;;;;6731600;88;20062;-78
2024/03/23 21:45:59;;;;;;;;;;;4.40;99.90;;;;;;6730353;88;20627;-77
2024/03/23 21:56:00;;;;;;;;;;;4.30;99.90;;;;;;6736628;88;20770;-78
2024/03/23 22:06:00;;;;;;;;;;;4.40;99.90;;;;;;6735553;88;20055;-77
2024/03/23 22:16:02;;;;;;;;;;;4.40;99.90;;;;;;6740402;88;20067;-77
2024/03/23 22:26:02;;;;;;;;;;;4.40;99.90;;;;;;6739040;88;20078;-78
2024/03/23 22:36:04;;;;;;;;;;;4.30;99.90;;;;;;6741579;88;20075;-78
2024/03/23 22:46:05;;;;;;;;;;;4.30;99.90;;;;;;6740617;88;20125;-78
2024/03/23 22:56:06;;;;;;;;;;;4.30;99.90;;;;;;6741982;88;20058;-78
2024/03/23 23:06:08;;;;;;;;;;;4.30;99.90;;;;;;6738221;88;20558;-78
2024/03/23 23:16:08;;;;;;;;;;;4.30;99.90;;;;;;6732770;88;20070;-78
2024/03/23 23:26:09;;;;;;;;;;;4.30;99.90;;;;;;6737579;88;20083;-78
2024/03/23 23:36:09;;;;;;;;;;;4.40;99.90;;;;;;6734832;88;20166;-78
2024/03/23 23:46:10;;;;;;;;;;;4.40;99.90;;;;;;6736251;88;20176;-78
2024/03/23 23:56:11;;;;;;;;;;;4.40;99.90;;;;;;6738258;88;20058;-78
